Time;durP1;ratioP1;P1;durP2;ratioP2;P2;SDS_P1;SDS_P2;PMS_P1;PMS_P2;Temp;Humidity;BMP_temperature;BMP_pressure;BME280_temperature;BME280_humidity;BME280_pressure;Samples;Min_cycle;Max_cycle;Signal;HPM_P1;HPM_P2
2024/01/08 00:02:52;;;;;;;4.33;3.90;;;;;;;1.52;41.25;100618.72;10317132;28;20710;-72
2024/01/08 00:07:53;;;;;;;4.20;3.90;;;;;;;1.77;41.15;100608.16;10324895;28;20768;-72
2024/01/08 00:12:55;;;;;;;4.70;4.10;;;;;;;1.62;41.53;100429.81;10320948;28;20321;-71
2024/01/08 00:17:57;;;;;;;4.43;4.03;;;;;;;2.51;40.17;100351.91;10326884;28;20250;-72
2024/01/08 00:22:59;;;;;;;5.03;4.63;;;;;;;1.57;41.28;100533.06;10325310;28;20639;-72
2024/01/08 00:28:01;;;;;;;4.43;4.00;;;;;;;2.84;40.00;100339.69;10331958;28;20234;-72
2024/01/08 00:33:03;;;;;;;3.87;3.57;;;;;;;0.22;41.94;100673.69;10321764;28;21056;-71
2024/01/08 00:38:05;;;;;;;4.20;3.90;;;;;;;1.09;40.88;100560.97;10320815;28;20253;-72
2024/01/08 00:43:07;;;;;;;4.43;4.03;;;;;;;1.39;40.34;100481.56;10323861;28;20230;-72
2024/01/08 00:48:08;;;;;;;3.97;3.67;;;;;;;2.11;40.07;100386.66;10328206;28;20277;-71
2024/01/08 00:53:10;;;;;;;3.90;3.60;;;;;;;2.60;39.10;100423.50;10327528;28;20250;-70
2024/01/08 00:58:12;;;;;;;4.07;3.77;;;;;;;1.04;40.28;100667.53;10324075;28;20242;-71
2024/01/08 01:03:13;;;;;;;3.80;3.60;;;;;;;2.94;38.65;100450.03;10329524;28;20847;-70
2024/01/08 01:08:15;;;;;;;4.03;3.63;;;;;;;1.51;40.68;100503.63;10323701;28;20357;-71
2024/01/08 01:13:17;;;;;;;4.00;3.70;;;;;;;1.77;40.00;100518.44;10327789;28;20324;-71
2024/01/08 01:18:19;;;;;;;4.00;3.70;;;;;;;1.76;40.21;100542.31;10322918;28;20250;-72
2024/01/08 01:23:21;;;;;;;4.50;4.10;;;;;;;2.11;40.11;100406.91;10329110;28;20242;-72
2024/01/08 01:28:22;;;;;;;4.43;4.13;;;;;;;2.03;40.12;100459.44;10318485;28;20643;-71
2024/01/08 01:33:24;;;;;;;4.50;4.10;;;;;;;2.21;40.09;100401.78;10320400;28;20309;-71
2024/01/08 01:38:26;;;;;;;4.23;3.90;;;;;;;1.40;39.92;100601.94;10325276;28;20699;-71
2024/01/08 01:43:31;;;;;;;4.20;3.90;;;;;;;1.49;40.50;100523.97;10322682;28;20238;-71
2024/01/08 01:48:34;;;;;;;4.40;4.10;;;;;;;2.57;39.22;100398.19;10329229;28;20244;-71
2024/01/08 01:53:36;;;;;;;4.10;3.77;;;;;;;1.99;39.70;100479.94;10316085;28;20733;-69
2024/01/08 01:58:38;;;;;;;3.73;3.43;;;;;;;0.80;40.56;100687.59;10307643;28;20239;-71
2024/01/08 02:03:40;;;;;;;4.87;4.47;;;;;;;3.14;38.31;100437.91;10282679;28;20242;-71
2024/01/08 02:08:42;;;;;;;3.77;3.43;;;;;;;1.90;40.34;100571.19;10327482;28;20231;-71
2024/01/08 02:13:44;;;;;;;5.03;4.53;;;;;;;2.30;39.54;100584.19;10318288;28;20788;-71
2024/01/08 02:18:46;;;;;;;4.23;3.83;;;;;;;1.84;40.37;100597.19;10326844;28;20241;-70
2024/01/08 02:23:48;;;;;;;4.07;3.77;;;;;;;3.64;38.52;100320.09;10316907;28;20678;-71
2024/01/08 02:28:50;;;;;;;4.10;3.80;;;;;;;2.87;40.06;100301.59;10316279;28;20231;-73
2024/01/08 02:33:52;;;;;;;5.27;3.90;;;;;;;2.16;39.87;100566.72;10321268;28;20234;-69
2024/01/08 02:38:53;;;;;;;4.13;3.73;;;;;;;2.79;39.78;100384.16;10327125;28;20645;-68
2024/01/08 02:43:55;;;;;;;3.77;3.47;;;;;;;2.23;39.92;100524.00;10321695;28;20237;-70
2024/01/08 02:48:59;;;;;;;4.40;4.00;;;;;;;1.78;40.39;100627.50;10320095;28;20455;-69
2024/01/08 02:54:00;;;;;;;4.60;4.20;;;;;;;2.77;39.77;100396.66;10323004;28;20552;-69
2024/01/08 02:59:06;;;;;;;4.53;4.13;;;;;;;2.33;39.80;100525.88;10317504;28;20757;-72
2024/01/08 03:04:08;;;;;;;4.30;3.90;;;;;;;2.51;40.22;100417.13;10325550;28;20243;-69
2024/01/08 03:09:10;;;;;;;3.80;3.50;;;;;;;3.28;38.29;100552.28;10311239;28;20241;-71
2024/01/08 03:14:11;;;;;;;3.90;3.60;;;;;;;2.73;39.78;100429.56;10327157;28;20494;-72
2024/01/08 03:19:13;;;;;;;3.97;3.67;;;;;;;4.10;38.87;100243.91;10309093;28;20347;-70
2024/01/08 03:24:15;;;;;;;4.00;3.70;;;;;;;3.89;39.03;100304.84;10319346;28;20238;-72
2024/01/08 03:29:16;;;;;;;3.70;3.40;;;;;;;3.33;39.12;100390.56;10318753;28;20585;-72
2024/01/08 03:34:18;;;;;;;3.83;3.53;;;;;;;3.28;39.44;100406.78;10327277;28;20230;-71
2024/01/08 03:39:20;;;;;;;3.97;3.67;;;;;;;2.28;39.74;100604.59;10321394;28;20250;-72
2024/01/08 03:44:22;;;;;;;3.70;3.40;;;;;;;2.86;39.98;100424.19;10320412;28;20614;-69
2024/01/08 03:49:23;;;;;;;3.80;3.50;;;;;;;4.14;39.14;100223.31;10329422;28;20299;-72
2024/01/08 03:54:25;;;;;;;4.40;4.00;;;;;;;3.72;38.88;100366.28;10328933;28;20296;-72
2024/01/08 03:59:26;;;;;;;4.17;3.80;;;;;;;3.29;39.54;100436.72;10331989;28;20709;-70
2024/01/08 04:04:28;;;;;;;4.00;3.70;;;;;;;2.74;39.52;100526.41;10323099;28;20233;-70
2024/01/08 04:09:30;;;;;;;4.10;3.70;;;;;;;2.15;39.60;100690.94;10332413;28;20262;-72
2024/01/08 04:14:32;;;;;;;5.00;3.47;;;;;;;2.72;40.18;100431.38;10323307;28;20234;-72
2024/01/08 04:19:38;;;;;;;4.20;3.90;;;;;;;1.91;40.38;100564.97;10318366;28;20267;-71
2024/01/08 04:24:39;;;;;;;5.00;4.60;;;;;;;2.42;39.58;100421.31;10324973;28;20761;-71
2024/01/08 04:29:41;;;;;;;4.30;3.90;;;;;;;3.21;39.12;100344.75;10334293;28;20328;-71
2024/01/08 04:34:42;;;;;;;4.67;4.27;;;;;;;2.45;39.67;100537.34;10322172;28;20375;-71
2024/01/08 04:39:45;;;;;;;4.27;3.97;;;;;;;2.94;39.35;100366.28;10318826;28;20254;-71
2024/01/08 04:44:47;;;;;;;4.00;3.70;;;;;;;2.19;40.04;100588.56;10315175;28;20226;-71
2024/01/08 04:49:48;;;;;;;4.20;3.90;;;;;;;3.57;38.97;100315.44;10315003;28;20226;-70
2024/01/08 04:54:50;;;;;;;3.57;3.37;;;;;;;3.05;39.74;100313.38;10315649;28;20763;-71
2024/01/08 04:59:52;;;;;;;3.77;3.47;;;;;;;2.87;39.61;100380.91;10318282;28;20235;-71
2024/01/08 05:04:54;;;;;;;3.97;3.67;;;;;;;3.46;39.13;100309.22;10319410;28;20255;-70
2024/01/08 05:09:55;;;;;;;3.53;3.33;;;;;;;2.97;38.72;100408.34;10318938;28;20775;-71
2024/01/08 05:14:57;;;;;;;3.53;3.33;;;;;;;0.97;40.08;100649.63;10317664;28;20312;-71
2024/01/08 05:19:59;;;;;;;3.50;3.30;;;;;;;1.94;38.86;100464.41;10318273;28;20745;-71
2024/01/08 05:25:01;;;;;;;3.70;3.50;;;;;;;1.72;39.23;100430.00;10318760;28;20234;-70
2024/01/08 05:30:04;;;;;;;3.60;3.40;;;;;;;3.26;37.75;100175.06;10317890;28;20588;-71
2024/01/08 05:35:06;;;;;;;3.33;3.13;;;;;;;1.55;38.93;100387.19;10318201;28;20229;-70
2024/01/08 05:40:08;;;;;;;3.37;3.17;;;;;;;1.15;39.37;100407.63;10318100;28;20232;-70
2024/01/08 05:45:10;;;;;;;3.50;3.20;;;;;;;1.51;38.42;100369.09;10315030;28;20230;-71
2024/01/08 05:50:12;;;;;;;3.37;3.17;;;;;;;0.83;38.45;100553.00;10315943;28;20241;-70
2024/01/08 05:55:14;;;;;;;3.53;3.23;;;;;;;0.73;39.07;100409.66;10315843;28;20245;-72
2024/01/08 06:00:16;;;;;;;3.73;3.43;;;;;;;1.79;38.11;100264.97;10311660;28;20656;-71
2024/01/08 06:05:18;;;;;;;3.60;3.40;;;;;;;1.05;38.70;100490.00;10315396;28;20238;-71
2024/01/08 06:10:20;;;;;;;3.93;3.23;;;;;;;0.28;39.04;100675.94;10315465;28;20293;-69
2024/01/08 06:15:22;;;;;;;4.03;3.73;;;;;;;1.19;39.00;100446.03;10316060;28;20273;-68
2024/01/08 06:20:23;;;;;;;4.07;3.77;;;;;;;0.87;39.21;100492.09;10321703;28;20717;-71
2024/01/08 06:25:25;;;;;;;3.83;3.53;;;;;;;2.09;38.78;100287.38;10316916;28;20712;-72
2024/01/08 06:30:27;;;;;;;3.80;3.50;;;;;;;2.04;38.25;100340.53;10320065;28;20245;-72
2024/01/08 06:35:29;;;;;;;6.40;3.63;;;;;;;2.20;38.51;100297.09;10317942;28;20589;-70
2024/01/08 06:40:30;;;;;;;3.87;3.57;;;;;;;1.39;39.46;100363.72;10320251;28;20242;-71
2024/01/08 06:45:32;;;;;;;3.60;3.33;;;;;;;3.05;37.48;100341.63;10319326;28;20672;-72
2024/01/08 06:50:36;;;;;;;4.17;3.87;;;;;;;2.78;37.34;100437.13;10317045;28;20322;-72
2024/01/08 06:55:38;;;;;;;4.10;3.80;;;;;;;2.83;37.95;100226.16;10313846;28;20241;-72
2024/01/08 07:00:40;;;;;;;3.93;3.50;;;;;;;2.22;38.52;100334.81;10320784;28;20333;-72
2024/01/08 07:05:41;;;;;;;3.80;3.50;;;;;;;1.19;38.87;100577.84;10313455;28;20225;-70
2024/01/08 07:10:47;;;;;;;3.90;3.70;;;;;;;-0.44;39.88;100852.94;10316856;28;20234;-72
2024/01/08 07:15:49;;;;;;;3.37;3.10;;;;;;;2.61;38.18;100249.00;10320250;28;20779;-72
2024/01/08 07:20:51;;;;;;;3.87;3.57;;;;;;;1.90;38.68;100322.25;10321341;28;20319;-71
2024/01/08 07:25:53;;;;;;;4.30;3.93;;;;;;;1.55;39.60;100375.81;10327920;28;20234;-70
2024/01/08 07:30:55;;;;;;;3.97;3.67;;;;;;;1.11;39.46;100499.25;10321677;28;20320;-71
2024/01/08 07:35:56;;;;;;;4.67;4.37;;;;;;;1.58;38.98;100510.97;10326933;28;20674;-71
2024/01/08 07:40:59;;;;;;;3.80;3.50;;;;;;;1.73;39.14;100406.13;10322926;28;20235;-71
2024/01/08 07:46:01;;;;;;;3.57;3.37;;;;;;;2.21;38.41;100407.91;10324886;28;20238;-71
2024/01/08 07:51:03;;;;;;;3.63;3.33;;;;;;;0.89;39.00;100710.72;10335803;28;20479;-72
2024/01/08 07:56:05;;;;;;;4.47;3.90;;;;;;;2.28;38.70;100363.38;10333361;28;20223;-72
2024/01/08 08:01:08;;;;;;;3.87;3.57;;;;;;;2.31;38.58;100381.66;10323677;28;20691;-72
2024/01/08 08:06:10;;;;;;;4.70;4.30;;;;;;;2.72;38.32;100325.66;10322896;28;20542;-71
2024/01/08 08:11:13;;;;;;;4.00;3.70;;;;;;;2.51;38.47;100369.56;10322383;28;20265;-72
2024/01/08 08:16:15;;;;;;;4.13;3.83;;;;;;;3.07;38.02;100337.06;10321673;28;20234;-72
2024/01/08 08:21:17;;;;;;;4.60;4.20;;;;;;;2.93;38.22;100384.91;10323542;28;20329;-72
2024/01/08 08:26:19;;;;;;;4.30;4.00;;;;;;;2.93;37.44;100538.25;10324282;28;20352;-71
2024/01/08 08:31:21;;;;;;;4.60;4.30;;;;;;;1.87;38.02;100736.88;10324959;28;20234;-71
2024/01/08 08:36:23;;;;;;;4.07;3.77;;;;;;;2.77;38.30;100424.88;10321657;28;20346;-71
2024/01/08 08:41:25;;;;;;;4.70;4.30;;;;;;;3.55;37.60;100334.09;10327184;28;20689;-71
2024/01/08 08:46:26;;;;;;;4.60;4.20;;;;;;;3.20;37.83;100400.41;10318875;28;20249;-71
2024/01/08 08:51:28;;;;;;;4.23;3.93;;;;;;;2.57;38.05;100508.28;10321374;28;20242;-71
2024/01/08 08:56:32;;;;;;;4.10;3.80;;;;;;;1.82;38.14;100766.19;10319026;28;20261;-71
2024/01/08 09:01:34;;;;;;;4.47;4.17;;;;;;;2.47;38.38;100542.50;10318576;28;20250;-71
2024/01/08 09:06:36;;;;;;;4.20;3.80;;;;;;;2.44;38.63;100496.00;10319832;28;20246;-71
2024/01/08 09:11:39;;;;;;;4.07;3.77;;;;;;;2.42;38.42;100537.56;10319882;28;20260;-70
2024/01/08 09:16:41;;;;;;;4.90;4.50;;;;;;;4.06;37.31;100358.22;10324589;28;20592;-72
2024/01/08 09:21:48;;;;;;;3.97;3.67;;;;;;;1.66;39.80;100550.03;10320852;28;20238;-71
2024/01/08 09:26:50;;;;;;;4.43;4.00;;;;;;;3.89;37.54;100404.63;10323496;28;20235;-71
2024/01/08 09:31:53;;;;;;;4.27;3.97;;;;;;;2.93;38.64;100515.31;10320824;28;20269;-71
2024/01/08 09:36:55;;;;;;;4.30;3.90;;;;;;;2.31;39.31;100577.94;10322729;28;20230;-71
2024/01/08 09:42:00;;;;;;;4.13;3.83;;;;;;;4.03;37.93;100351.34;10317496;28;20268;-70
2024/01/08 09:47:03;;;;;;;5.27;4.03;;;;;;;3.83;37.76;100511.84;10323020;28;20238;-72
2024/01/08 09:52:08;;;;;;;4.10;3.80;;;;;;;3.26;38.22;100561.28;10316860;28;20240;-71
2024/01/08 09:57:10;;;;;;;4.10;3.80;;;;;;;3.88;37.42;100501.72;10316407;28;20546;-71
2024/01/08 10:02:16;;;;;;;4.63;4.17;;;;;;;2.33;39.22;100712.53;10317469;28;20273;-70
2024/01/08 10:07:18;;;;;;;4.53;4.20;;;;;;;2.23;39.53;100661.31;10320222;28;20229;-70
2024/01/08 10:12:20;;;;;;;4.63;4.23;;;;;;;1.63;40.80;100509.81;10319329;28;20635;-70
2024/01/08 10:17:21;;;;;;;4.10;3.80;;;;;;;2.70;39.69;100329.34;10321675;28;20239;-71
2024/01/08 10:22:24;;;;;;;5.47;4.97;;;;;;;2.13;40.47;100386.50;10322077;28;20734;-70
2024/01/08 10:27:30;;;;;;;4.80;4.17;;;;;;;1.85;40.00;100597.06;10318920;28;20615;-71
2024/01/08 10:32:32;;;;;;;6.10;4.47;;;;;;;2.42;40.41;100343.88;10324282;28;20524;-71
2024/01/08 10:37:36;;;;;;;5.77;5.33;;;;;;;1.42;41.03;100542.00;10314680;28;20244;-69
2024/01/08 10:42:40;;;;;;;8.20;4.67;;;;;;;1.36;41.12;100553.00;10321513;28;20348;-72
2024/01/08 10:47:51;;;;;;;5.27;4.77;;;;;;;1.43;40.22;100546.34;10312678;28;20775;-72
2024/01/08 10:52:56;;;;;;;13.53;9.27;;;;;;;1.04;40.61;100580.56;10309900;28;20346;-70
2024/01/08 10:58:16;;;;;;;5.60;5.10;;;;;;;1.20;40.17;100524.16;10313424;28;20210;-72
2024/01/08 11:06:13;;;;;;;6.43;5.83;;;;;;;-0.21;42.29;100358.00;10435413;27;20792;-70
2024/01/08 11:11:15;;;;;;;5.00;4.50;;;;;;;0.99;41.40;100107.41;10412022;28;20236;-69
2024/01/08 11:16:27;;;;;;;5.00;4.60;;;;;;;1.00;40.86;100240.84;10407732;28;20235;-70
2024/01/08 11:21:29;;;;;;;4.83;4.40;;;;;;;0.68;40.79;100268.56;10403386;28;20240;-69
2024/01/08 11:26:30;;;;;;;4.57;4.13;;;;;;;0.65;40.89;100296.91;10409820;28;20232;-68
2024/01/08 11:31:48;;;;;;;4.73;4.33;;;;;;;1.03;40.57;100124.66;10408631;28;20248;-69
2024/01/08 11:36:58;;;;;;;7.10;5.73;;;;;;;0.21;40.25;100325.34;10412005;28;20257;-71
2024/01/08 11:42:00;;;;;;;4.90;4.40;;;;;;;-0.26;40.70;100411.75;10400899;28;20233;-71
2024/01/08 11:47:03;;;;;;;5.33;4.83;;;;;;;0.58;39.69;100291.22;10417137;28;20421;-72
2024/01/08 11:52:07;;;;;;;17.43;14.03;;;;;;;0.77;39.96;100226.72;10412032;28;20269;-70
2024/01/08 11:57:09;;;;;;;9.20;7.47;;;;;;;1.21;38.22;100288.56;10414948;28;20228;-71
2024/01/08 12:02:11;;;;;;;8.67;7.77;;;;;;;2.00;38.07;100175.41;10399979;28;20331;-71
2024/01/08 12:07:13;;;;;;;5.93;5.27;;;;;;;0.01;38.96;100520.59;10407331;28;20229;-71
2024/01/08 12:12:17;;;;;;;6.47;5.87;;;;;;;0.63;38.99;100314.59;10397757;28;20236;-71
2024/01/08 12:17:19;;;;;;;5.20;4.70;;;;;;;1.26;38.66;100191.50;10381091;28;20233;-70
2024/01/08 12:22:22;;;;;;;5.50;4.80;;;;;;;1.11;38.77;100287.53;10374064;28;20292;-71
2024/01/08 12:27:31;;;;;;;4.73;4.33;;;;;;;-0.34;39.59;100534.16;10382529;28;20778;-71
2024/01/08 12:32:33;;;;;;;5.87;5.10;;;;;;;0.88;39.08;100300.53;10380254;28;20242;-70
2024/01/08 12:37:35;;;;;;;4.87;4.47;;;;;;;-0.14;39.54;100510.06;10376279;28;20352;-71
2024/01/08 12:42:37;;;;;;;5.10;4.60;;;;;;;0.09;39.45;100481.44;10371912;28;20642;-70
2024/01/08 12:47:39;;;;;;;6.60;5.93;;;;;;;-0.65;39.68;100601.75;10382607;28;20244;-70
2024/01/08 12:52:41;;;;;;;5.07;4.67;;;;;;;0.85;39.48;100234.91;10369342;28;20629;-69
2024/01/08 12:57:42;;;;;;;7.87;6.07;;;;;;;-0.41;39.75;100543.38;10378901;28;20271;-70
2024/01/08 13:02:44;;;;;;;7.30;6.13;;;;;;;-0.08;39.52;100503.56;10369360;28;20304;-69
2024/01/08 13:07:46;;;;;;;6.77;6.03;;;;;;;0.15;39.85;100281.00;10381018;28;20233;-69
2024/01/08 13:12:48;;;;;;;5.87;5.27;;;;;;;0.85;39.61;100192.75;10363544;28;20747;-71
2024/01/08 13:17:49;;;;;;;7.80;5.50;;;;;;;0.50;39.01;100419.97;10374353;28;20303;-70
2024/01/08 13:22:51;;;;;;;8.90;7.63;;;;;;;0.17;39.27;100436.22;10368679;28;20238;-71
2024/01/08 13:27:53;;;;;;;18.23;12.87;;;;;;;-0.47;40.08;100474.44;10373150;28;20349;-71
2024/01/08 13:32:55;;;;;;;14.43;10.37;;;;;;;0.14;39.48;100387.25;10367728;28;20232;-70
2024/01/08 13:37:59;;;;;;;5.83;5.20;;;;;;;1.32;39.14;100133.09;10364846;28;20745;-69
2024/01/08 13:43:02;;;;;;;35.67;20.57;;;;;;;-0.28;39.36;100503.06;10373641;28;20241;-71
2024/01/08 13:48:04;;;;;;;11.03;9.90;;;;;;;0.48;38.98;100377.09;10374817;28;20220;-71
2024/01/08 13:53:08;;;;;;;6.83;6.00;;;;;;;0.57;39.28;100350.13;10365784;28;20223;-71
2024/01/08 13:58:10;;;;;;;6.83;5.93;;;;;;;-0.76;40.38;100575.22;10365390;28;20241;-71
2024/01/08 14:03:11;;;;;;;6.87;5.30;;;;;;;1.04;38.77;100281.88;10372398;28;20318;-71
2024/01/08 14:08:13;;;;;;;5.77;5.27;;;;;;;0.46;38.99;100344.72;10372282;28;20229;-70
2024/01/08 14:13:19;;;;;;;6.20;5.07;;;;;;;-0.41;40.04;100533.69;10366129;28;20241;-70
2024/01/08 14:18:20;;;;;;;5.87;5.07;;;;;;;0.03;39.80;100343.22;10369124;28;20236;-71
2024/01/08 14:23:22;;;;;;;5.40;4.90;;;;;;;0.42;39.46;100330.09;10374300;28;20232;-71
2024/01/08 14:28:24;;;;;;;6.07;5.47;;;;;;;0.09;39.31;100448.09;10368579;28;20628;-71
2024/01/08 14:33:26;;;;;;;6.00;5.30;;;;;;;0.25;39.27;100391.78;10362822;28;20295;-71
2024/01/08 14:38:29;;;;;;;8.10;7.10;;;;;;;0.12;39.87;100278.59;10370185;28;20248;-71
2024/01/08 14:43:30;;;;;;;5.93;5.27;;;;;;;1.17;38.66;100229.94;10365584;28;20686;-71
2024/01/08 14:48:36;;;;;;;5.93;5.33;;;;;;;-0.93;40.94;100456.19;10367369;28;20248;-71
2024/01/08 14:53:40;;;;;;;6.90;5.37;;;;;;;-0.46;39.26;100494.53;10367463;28;20247;-71
2024/01/08 14:58:42;;;;;;;6.63;5.87;;;;;;;0.34;39.20;100359.56;10357794;28;20236;-71
2024/01/08 15:05:14;;;;;;;6.80;6.10;;;;;;;-1.76;42.26;100277.41;10572847;27;20361;-73
2024/01/08 15:10:18;;;;;;;6.30;5.70;;;;;;;-1.10;41.37;100256.75;10535606;28;20258;-73
2024/01/08 15:15:20;;;;;;;7.27;5.63;;;;;;;-1.52;41.16;100408.09;10525322;28;20319;-69
2024/01/08 15:20:21;;;;;;;6.63;5.90;;;;;;;-0.49;40.64;100225.69;10534158;28;20875;-71
2024/01/08 15:25:23;;;;;;;6.10;5.50;;;;;;;-0.50;40.04;100277.44;10492897;28;20227;-71
2024/01/08 15:30:25;;;;;;;5.93;5.40;;;;;;;-0.46;40.42;100271.00;10453683;28;20235;-70
2024/01/08 15:35:28;;;;;;;7.67;5.70;;;;;;;-0.82;40.53;100334.69;10471461;28;20726;-71
2024/01/08 15:40:30;;;;;;;6.60;5.93;;;;;;;-0.62;40.09;100352.66;10490379;28;20246;-71
2024/01/08 15:45:32;;;;;;;6.83;5.17;;;;;;;-1.08;40.67;100434.31;10512463;28;20227;-71
2024/01/08 15:50:34;;;;;;;8.13;6.00;;;;;;;-1.38;40.20;100640.06;10512342;28;20848;-70
2024/01/08 15:55:36;;;;;;;6.00;5.37;;;;;;;-2.00;40.98;100631.19;10511755;28;20231;-71
2024/01/08 16:00:38;;;;;;;5.97;5.37;;;;;;;0.06;39.70;100207.97;10504538;28;20239;-71
2024/01/08 16:05:40;;;;;;;7.30;6.37;;;;;;;-1.07;41.28;100328.31;10511160;28;20520;-70
2024/01/08 16:10:42;;;;;;;8.23;6.37;;;;;;;-1.73;40.44;100657.75;10512279;28;20709;-70
2024/01/08 16:15:44;;;;;;;9.13;6.77;;;;;;;-0.89;41.03;100310.56;10486643;28;20273;-70
2024/01/08 16:20:46;;;;;;;7.70;6.13;;;;;;;-0.59;39.92;100416.47;10484206;28;20612;-70
2024/01/08 16:25:48;;;;;;;7.20;6.40;;;;;;;-1.74;41.15;100585.19;10478186;28;20270;-71
2024/01/08 16:30:49;;;;;;;7.50;6.33;;;;;;;0.05;39.74;100253.63;10476678;28;20218;-74
2024/01/08 16:35:51;;;;;;;8.90;7.60;;;;;;;-0.72;40.46;100408.50;10484790;28;20235;-72
2024/01/08 16:40:54;;;;;;;9.60;7.57;;;;;;;-0.99;40.90;100425.06;10486604;28;20223;-72
2024/01/08 16:45:55;;;;;;;7.30;6.50;;;;;;;-0.64;40.29;100357.16;10493542;28;20238;-73
2024/01/08 16:50:58;;;;;;;9.00;7.23;;;;;;;-1.42;41.57;100475.72;10485706;28;20238;-74
2024/01/08 16:56:01;;;;;;;7.00;6.30;;;;;;;0.40;39.91;100169.59;10475728;28;20844;-73
2024/01/08 17:01:06;;;;;;;11.83;7.77;;;;;;;-0.45;40.48;100350.75;10483332;28;20231;-73
2024/01/08 17:06:08;;;;;;;10.60;8.40;;;;;;;-0.59;40.66;100369.16;10493691;28;20233;-73
2024/01/08 17:11:11;;;;;;;9.40;6.87;;;;;;;0.34;39.54;100298.19;10464546;28;20234;-73
2024/01/08 17:16:13;;;;;;;8.60;7.60;;;;;;;-0.65;40.02;100526.34;10494517;28;20230;-72
2024/01/08 17:21:15;;;;;;;11.30;8.70;;;;;;;0.10;40.06;100281.31;10481804;28;20618;-73
2024/01/08 17:26:17;;;;;;;11.30;8.07;;;;;;;0.29;39.58;100361.66;10466571;28;20916;-71
2024/01/08 17:31:19;;;;;;;8.90;7.13;;;;;;;-0.41;40.11;100478.47;10462062;28;20242;-72
2024/01/08 17:36:22;;;;;;;8.67;7.43;;;;;;;-0.19;40.04;100408.72;10480574;28;20255;-72
2024/01/08 17:41:25;;;;;;;8.63;6.90;;;;;;;-1.01;40.61;100581.94;10477587;28;20265;-72
2024/01/08 17:46:26;;;;;;;10.77;8.00;;;;;;;-2.15;41.26;100732.53;10460840;28;20239;-71
2024/01/08 17:51:28;;;;;;;12.10;9.63;;;;;;;-1.05;40.92;100434.13;10478581;28;20308;-71
2024/01/08 17:56:32;;;;;;;12.60;8.33;;;;;;;-1.39;41.18;100507.06;10481023;28;20242;-71
2024/01/08 18:01:38;;;;;;;9.03;7.57;;;;;;;-0.66;40.31;100337.16;10484586;28;20268;-71
2024/01/08 18:06:40;;;;;;;10.70;7.70;;;;;;;-0.83;39.72;100535.34;10480390;28;20242;-72
2024/01/08 18:11:43;;;;;;;11.80;6.67;;;;;;;-0.07;39.42;100379.81;10482945;28;20224;-71
2024/01/08 18:16:45;;;;;;;10.30;7.47;;;;;;;-1.26;40.45;100601.75;10483693;28;20280;-71
2024/01/08 18:21:47;;;;;;;10.93;8.63;;;;;;;-0.80;40.52;100425.59;10478674;28;20225;-71
2024/01/08 18:26:49;;;;;;;10.37;9.33;;;;;;;-1.32;40.64;100567.94;10478015;28;20617;-71
2024/01/08 18:31:51;;;;;;;9.83;8.30;;;;;;;-1.58;40.89;100575.53;10477134;28;20234;-72
2024/01/08 18:36:52;;;;;;;9.10;7.30;;;;;;;-1.04;40.66;100482.25;10473568;28;20229;-73
2024/01/08 18:41:54;;;;;;;11.00;8.00;;;;;;;-0.98;39.42;100600.97;10473358;28;20290;-72
2024/01/08 18:46:56;;;;;;;10.70;8.33;;;;;;;-2.22;40.88;100818.53;10475816;28;20311;-70
2024/01/08 18:51:58;;;;;;;10.17;7.50;;;;;;;-1.64;40.69;100641.47;10473297;28;20347;-72
2024/01/08 18:56:59;;;;;;;9.47;7.20;;;;;;;-1.75;41.29;100618.47;10476706;28;20231;-71
2024/01/08 19:02:01;;;;;;;10.53;8.57;;;;;;;-3.14;42.07;100839.41;10472318;28;20295;-70
2024/01/08 19:07:04;;;;;;;10.23;8.07;;;;;;;-1.66;41.31;100485.88;10474372;28;20227;-70
2024/01/08 19:12:08;;;;;;;11.00;8.57;;;;;;;-2.28;41.62;100652.81;10476934;28;20232;-71
2024/01/08 19:17:10;;;;;;;13.67;7.93;;;;;;;-1.87;40.76;100571.03;10477990;28;20861;-70
2024/01/08 19:22:12;;;;;;;10.10;7.40;;;;;;;-1.83;41.19;100564.72;10480034;28;20925;-70
2024/01/08 19:27:14;;;;;;;9.63;7.80;;;;;;;-1.09;41.15;100318.84;10477525;28;20793;-70
2024/01/08 19:32:16;;;;;;;10.20;7.77;;;;;;;-1.69;41.01;100528.03;10476449;28;20784;-71
2024/01/08 19:37:18;;;;;;;9.97;7.70;;;;;;;-2.63;41.67;100724.41;10462521;28;20230;-75
2024/01/08 19:42:20;;;;;;;10.67;7.83;;;;;;;-1.07;40.11;100517.47;10476015;28;20306;-78
2024/01/08 19:47:22;;;;;;;8.30;7.23;;;;;;;-1.26;39.95;100600.88;10465754;28;20322;-73
2024/01/08 19:52:24;;;;;;;12.03;8.13;;;;;;;-1.48;40.25;100577.63;10486160;28;20222;-71
2024/01/08 19:57:26;;;;;;;11.43;7.93;;;;;;;-2.55;41.05;100848.06;10491112;28;20289;-74
2024/01/08 20:02:27;;;;;;;10.83;7.30;;;;;;;-1.96;40.92;100648.47;10492587;28;20246;-72
2024/01/08 20:07:29;;;;;;;10.70;8.27;;;;;;;-0.88;40.44;100370.03;10495647;28;20722;-71
2024/01/08 20:12:31;;;;;;;10.47;7.67;;;;;;;-1.42;40.26;100587.78;10480721;28;20616;-73
2024/01/08 20:17:32;;;;;;;9.93;7.97;;;;;;;-2.27;41.47;100652.72;10491879;28;20246;-73
2024/01/08 20:22:35;;;;;;;9.83;7.13;;;;;;;-1.61;41.13;100496.13;10460896;28;20331;-72
2024/01/08 20:27:37;;;;;;;11.97;8.20;;;;;;;-1.28;40.56;100453.06;10494831;28;20326;-77
2024/01/08 20:32:40;;;;;;;10.13;8.07;;;;;;;-1.41;40.11;100532.56;10485894;28;20237;-73
2024/01/08 20:37:42;;;;;;;11.37;8.20;;;;;;;-1.32;40.27;100488.34;10484827;28;20296;-73
2024/01/08 20:42:44;;;;;;;10.47;7.83;;;;;;;-1.46;40.73;100463.72;10493128;28;21000;-70
2024/01/08 20:47:48;;;;;;;9.77;7.80;;;;;;;-1.77;40.82;100523.22;10485250;28;20245;-69
2024/01/08 20:52:50;;;;;;;9.70;7.50;;;;;;;-2.11;41.06;100610.78;10485298;28;20232;-71
2024/01/08 20:57:52;;;;;;;10.27;8.07;;;;;;;-2.00;40.68;100624.19;10480354;28;21533;-69
2024/01/08 21:02:54;;;;;;;10.20;7.77;;;;;;;-1.79;40.68;100563.59;10484193;28;20266;-71
2024/01/08 21:07:57;;;;;;;11.27;7.90;;;;;;;-2.10;40.72;100680.69;10485306;28;20666;-69
2024/01/08 21:12:58;;;;;;;9.97;8.13;;;;;;;-1.63;40.66;100535.56;10481966;28;20279;-69
2024/01/08 21:18:00;;;;;;;8.80;6.97;;;;;;;-2.26;40.71;100708.63;10482037;28;20680;-68
2024/01/08 21:23:03;;;;;;;12.30;7.90;;;;;;;-1.52;40.21;100513.94;10487789;28;20768;-69
2024/01/08 21:28:05;;;;;;;9.33;7.90;;;;;;;-1.50;40.39;100435.94;10486252;28;20205;-72
2024/01/08 21:33:06;;;;;;;9.80;7.83;;;;;;;-2.44;41.40;100597.69;10484938;28;20232;-71
2024/01/08 21:38:08;;;;;;;9.07;7.47;;;;;;;-1.50;40.57;100416.72;10485959;28;20553;-70
2024/01/08 21:43:10;;;;;;;8.50;7.47;;;;;;;-2.34;41.53;100562.19;10481767;28;20329;-69
2024/01/08 21:48:13;;;;;;;10.47;8.30;;;;;;;-2.62;41.48;100630.94;10483350;28;20240;-71
2024/01/08 21:53:15;;;;;;;13.47;8.80;;;;;;;-1.69;41.04;100373.19;10475980;28;20235;-69
2024/01/08 21:58:17;;;;;;;12.57;7.80;;;;;;;-1.60;40.34;100446.16;10481077;28;20236;-72
2024/01/08 22:03:18;;;;;;;12.23;8.13;;;;;;;-1.76;41.05;100419.94;10461728;28;20235;-71
2024/01/08 22:08:22;;;;;;;11.40;7.80;;;;;;;-3.19;42.06;100704.41;10479696;28;20237;-71
2024/01/08 22:13:24;;;;;;;8.97;8.07;;;;;;;-2.97;42.04;100592.47;10460980;28;20250;-72
2024/01/08 22:18:25;;;;;;;8.70;7.80;;;;;;;-2.19;41.13;100522.06;10479857;28;20283;-70
2024/01/08 22:23:27;;;;;;;12.67;9.30;;;;;;;-2.30;40.75;100618.78;10479459;28;20250;-71
2024/01/08 22:28:29;;;;;;;12.53;9.00;;;;;;;-2.57;41.78;100475.16;10480556;28;20290;-71
2024/01/08 22:33:31;;;;;;;9.87;8.17;;;;;;;-1.79;40.59;100346.66;10478859;28;20598;-71
2024/01/08 22:38:33;;;;;;;10.27;7.83;;;;;;;-1.95;41.13;100353.75;10480192;28;21059;-70
2024/01/08 22:43:35;;;;;;;12.53;9.00;;;;;;;-3.06;41.19;100724.69;10478501;28;20251;-71
2024/01/08 22:48:37;;;;;;;10.07;8.43;;;;;;;-2.30;41.00;100457.06;10460045;28;20891;-70
2024/01/08 22:53:39;;;;;;;11.97;8.10;;;;;;;-2.90;41.44;100627.06;10473989;28;20239;-71
2024/01/08 22:58:40;;;;;;;10.27;8.13;;;;;;;-2.37;41.06;100444.41;10456941;28;20236;-70
2024/01/08 23:03:44;;;;;;;9.67;7.67;;;;;;;-3.80;42.08;100792.63;10476859;28;20302;-70
2024/01/08 23:08:46;;;;;;;11.80;9.00;;;;;;;-2.90;41.88;100498.72;10477648;28;20745;-71
2024/01/08 23:13:48;;;;;;;14.90;8.37;;;;;;;-1.85;40.46;100390.75;10460593;28;20267;-71
2024/01/08 23:18:49;;;;;;;10.50;8.37;;;;;;;-2.72;41.33;100504.78;10478154;28;20728;-71